Time;durP1;ratioP1;P1;durP2;ratioP2;P2;SDS_P1;SDS_P2;PMS_P1;PMS_P2;Temp;Humidity;BMP_temperature;BMP_pressure;BME280_temperature;BME280_humidity;BME280_pressure;Samples;Min_cycle;Max_cycle;Signal;HPM_P1;HPM_P2
2023/06/26 00:00:19;;;;;;;4.70;3.70;;;26.30;54.60;;;;;;5033272;28;20177;-78
2023/06/26 00:02:48;;;;;;;4.37;3.97;;;26.30;54.60;;;;;;5032387;28;20208;-77
2023/06/26 00:05:16;;;;;;;4.80;4.30;;;26.30;54.70;;;;;;5000932;28;20603;-77
2023/06/26 00:07:42;;;;;;;4.77;3.67;;;26.30;54.90;;;;;;5032539;28;20587;-78
2023/06/26 00:10:08;;;;;;;4.23;3.83;;;26.30;54.80;;;;;;5032569;28;20192;-78
2023/06/26 00:12:33;;;;;;;4.30;3.90;;;26.20;55.20;;;;;;5033149;28;20292;-77
2023/06/26 00:14:59;;;;;;;4.17;3.50;;;26.20;55.00;;;;;;5032882;28;20200;-78
2023/06/26 00:17:25;;;;;;;5.37;3.87;;;26.10;55.10;;;;;;5016604;28;20173;-78
2023/06/26 00:19:51;;;;;;;3.50;2.83;;;26.10;55.30;;;;;;5032956;28;20200;-78
2023/06/26 00:22:16;;;;;;;4.20;3.50;;;26.00;55.30;;;;;;5049726;28;20189;-78
2023/06/26 00:24:42;;;;;;;4.80;4.10;;;26.00;55.50;;;;;;5016571;28;20227;-78
2023/06/26 00:27:08;;;;;;;4.37;3.37;;;26.00;55.60;;;;;;5049930;28;20238;-78
2023/06/26 00:29:33;;;;;;;3.93;3.53;;;26.00;55.60;;;;;;5016283;28;20288;-77
2023/06/26 00:31:59;;;;;;;4.87;4.20;;;26.00;55.60;;;;;;5031330;28;20275;-77
2023/06/26 00:34:25;;;;;;;4.23;2.90;;;25.90;55.70;;;;;;5032886;28;20185;-78
2023/06/26 00:36:51;;;;;;;6.10;3.83;;;25.90;55.70;;;;;;5031954;28;20607;-77
2023/06/26 00:39:17;;;;;;;7.77;4.27;;;25.90;55.80;;;;;;5016271;28;20542;-77
2023/06/26 00:41:43;;;;;;;5.00;4.07;;;25.80;56.00;;;;;;5014966;28;20204;-77
2023/06/26 00:44:10;;;;;;;4.53;3.80;;;25.80;56.10;;;;;;5032737;28;20675;-77
2023/06/26 00:46:36;;;;;;;3.80;3.40;;;25.80;56.10;;;;;;5015899;28;20653;-78
2023/06/26 00:49:03;;;;;;;5.37;4.40;;;25.70;56.40;;;;;;5032342;28;20461;-77
2023/06/26 00:51:30;;;;;;;4.00;3.37;;;25.70;56.40;;;;;;5015387;28;20629;-77
2023/06/26 00:53:57;;;;;;;4.77;4.37;;;25.70;56.50;;;;;;5015555;28;20905;-77
2023/06/26 00:56:23;;;;;;;4.80;3.80;;;25.70;56.60;;;;;;5032619;28;20689;-77
2023/06/26 00:58:49;;;;;;;4.73;3.70;;;25.60;56.90;;;;;;5031964;28;20592;-77
2023/06/26 01:01:17;;;;;;;4.47;4.03;;;25.60;56.90;;;;;;5014757;28;21177;-77
2023/06/26 01:03:51;;;;;;;6.30;3.50;;;25.50;57.00;;;;;;5032053;28;20666;-77
2023/06/26 01:06:19;;;;;;;4.80;4.30;;;25.50;57.30;;;;;;5032029;28;21008;-77
2023/06/26 01:08:46;;;;;;;4.13;3.70;;;25.50;57.30;;;;;;5049776;28;20586;-78
2023/06/26 01:11:12;;;;;;;4.13;3.73;;;25.40;57.60;;;;;;5031314;28;20583;-77
2023/06/26 01:13:39;;;;;;;4.80;3.87;;;25.40;58.30;;;;;;5013131;28;20584;-77
2023/06/26 01:16:05;;;;;;;4.10;3.57;;;25.30;57.60;;;;;;5047263;28;20722;-77
2023/06/26 01:18:32;;;;;;;5.63;4.03;;;25.30;57.70;;;;;;5050105;28;20969;-77
2023/06/26 01:21:01;;;;;;;4.63;4.00;;;25.30;58.40;;;;;;5014661;28;20606;-77
2023/06/26 01:23:31;;;;;;;3.90;3.50;;;25.20;58.20;;;;;;5031736;28;20590;-77
2023/06/26 01:26:09;;;;;;;4.87;3.63;;;25.20;58.30;;;;;;5024227;28;20628;-77
2023/06/26 01:28:37;;;;;;;5.40;4.23;;;25.20;58.40;;;;;;5011804;28;20653;-77
2023/06/26 01:31:05;;;;;;;4.73;3.90;;;25.10;58.60;;;;;;5026610;28;20598;-77
2023/06/26 01:33:32;;;;;;;4.13;3.73;;;25.10;58.80;;;;;;5031842;28;20576;-77
2023/06/26 01:35:57;;;;;;;3.87;3.47;;;25.10;58.80;;;;;;5031520;28;20598;-77
2023/06/26 01:38:23;;;;;;;4.97;4.43;;;25.00;59.10;;;;;;5031844;28;21363;-77
2023/06/26 01:40:50;;;;;;;5.80;4.67;;;25.00;59.10;;;;;;5031737;28;20181;-77
2023/06/26 01:43:42;;;;;;;4.00;3.60;;;24.90;59.40;;;;;;5030997;28;20612;-77
2023/06/26 01:46:23;;;;;;;4.50;4.00;;;24.90;59.90;;;;;;5012317;28;20624;-77
2023/06/26 01:49:21;;;;;;;6.60;4.70;;;24.90;59.80;;;;;;4995280;28;20615;-77
2023/06/26 01:52:06;;;;;;;4.07;3.67;;;24.80;60.40;;;;;;4998361;28;20616;-77
2023/06/26 01:54:40;;;;;;;4.07;3.67;;;24.80;60.70;;;;;;4992260;28;20591;-77
2023/06/26 01:57:08;;;;;;;4.10;3.70;;;24.70;60.70;;;;;;5031559;28;20935;-77
2023/06/26 01:59:34;;;;;;;4.60;4.20;;;24.70;60.70;;;;;;5031276;28;20580;-77
2023/06/26 02:02:01;;;;;;;4.77;3.80;;;24.70;60.80;;;;;;5020535;28;20625;-77
2023/06/26 02:04:27;;;;;;;4.70;3.90;;;24.70;61.30;;;;;;5031150;28;20958;-77
2023/06/26 02:06:54;;;;;;;3.97;3.57;;;24.60;61.30;;;;;;5031598;28;20634;-77
2023/06/26 02:09:20;;;;;;;6.00;4.80;;;24.60;61.60;;;;;;5014843;28;20656;-77
2023/06/26 02:11:46;;;;;;;6.03;4.77;;;24.60;62.10;;;;;;5014029;28;20611;-78
2023/06/26 02:14:12;;;;;;;5.83;4.67;;;24.50;62.60;;;;;;5031249;28;20193;-78
2023/06/26 02:16:38;;;;;;;4.70;4.30;;;24.50;62.80;;;;;;5015173;28;20173;-77
2023/06/26 02:19:06;;;;;;;4.03;3.63;;;24.50;63.00;;;;;;5049359;28;20586;-77
2023/06/26 02:21:31;;;;;;;4.87;4.37;;;24.40;63.30;;;;;;5030628;28;20630;-78
2023/06/26 02:23:57;;;;;;;4.20;3.80;;;24.40;63.50;;;;;;5031686;28;20184;-78
2023/06/26 02:26:23;;;;;;;4.63;4.20;;;24.40;63.90;;;;;;5014538;28;20211;-78
2023/06/26 02:28:48;;;;;;;4.40;4.00;;;24.40;64.30;;;;;;5015176;28;20177;-78
2023/06/26 02:31:14;;;;;;;4.40;4.00;;;24.30;65.30;;;;;;5031532;28;20173;-78
2023/06/26 02:33:41;;;;;;;4.60;4.20;;;24.30;64.80;;;;;;5035374;28;20712;-78
2023/06/26 02:36:08;;;;;;;6.50;4.57;;;24.30;65.40;;;;;;5032192;28;20792;-78
2023/06/26 02:38:33;;;;;;;4.13;3.67;;;24.20;65.60;;;;;;5018514;28;20667;-78
2023/06/26 02:41:01;;;;;;;4.30;3.43;;;24.20;66.00;;;;;;5017279;28;20181;-77
2023/06/26 02:43:27;;;;;;;6.93;4.30;;;24.20;66.40;;;;;;5034675;28;20595;-77
2023/06/26 02:45:52;;;;;;;4.90;3.83;;;24.10;66.70;;;;;;5018194;28;20240;-78
2023/06/26 02:48:18;;;;;;;6.23;4.57;;;24.10;67.40;;;;;;5018104;28;20177;-78
2023/06/26 02:50:46;;;;;;;5.43;4.20;;;24.00;67.80;;;;;;5017745;28;20648;-77
2023/06/26 02:53:13;;;;;;;5.57;4.13;;;24.00;68.40;;;;;;5017568;28;20201;-78
2023/06/26 02:55:41;;;;;;;5.47;4.33;;;24.00;68.90;;;;;;5018126;28;20602;-77
2023/06/26 02:58:07;;;;;;;4.67;4.27;;;23.90;69.40;;;;;;5017537;28;20591;-78
2023/06/26 03:00:34;;;;;;;3.97;3.57;;;23.90;70.20;;;;;;5001523;28;20219;-78
2023/06/26 03:03:03;;;;;;;4.60;3.90;;;23.90;70.30;;;;;;5033141;28;20730;-78
2023/06/26 03:05:29;;;;;;;5.60;5.00;;;23.90;70.40;;;;;;5017471;28;21007;-78
2023/06/26 03:07:55;;;;;;;5.17;4.47;;;23.90;70.40;;;;;;5017138;28;20582;-78
2023/06/26 03:10:21;;;;;;;4.13;3.40;;;23.90;70.60;;;;;;5017741;28;20589;-78
2023/06/26 03:12:47;;;;;;;4.83;3.83;;;23.90;70.90;;;;;;5017308;28;21052;-78
2023/06/26 03:15:13;;;;;;;4.50;3.87;;;23.90;71.00;;;;;;5033953;28;20587;-78
2023/06/26 03:17:39;;;;;;;4.33;3.93;;;23.90;71.10;;;;;;5018188;28;20184;-78
2023/06/26 03:20:09;;;;;;;4.47;3.90;;;23.90;71.40;;;;;;5017932;28;20615;-78
2023/06/26 03:22:46;;;;;;;4.70;3.90;;;23.90;71.60;;;;;;5051711;28;20607;-78
2023/06/26 03:25:15;;;;;;;5.73;3.37;;;23.90;72.00;;;;;;5033552;28;20623;-78
2023/06/26 03:27:40;;;;;;;3.93;3.33;;;24.00;72.50;;;;;;5051814;28;20943;-77
2023/06/26 03:30:07;;;;;;;4.07;3.40;;;24.00;72.70;;;;;;5051377;28;20542;-76
2023/06/26 03:32:35;;;;;;;4.30;3.67;;;24.10;73.10;;;;;;5032861;28;20275;-77
2023/06/26 03:35:03;;;;;;;7.20;4.33;;;24.10;73.30;;;;;;5031844;28;21156;-76
2023/06/26 03:37:29;;;;;;;6.20;3.60;;;24.10;73.60;;;;;;5017461;28;20175;-76
2023/06/26 03:39:55;;;;;;;4.53;4.13;;;24.20;73.80;;;;;;5017259;28;20674;-76
2023/06/26 03:42:22;;;;;;;4.27;3.33;;;24.20;74.00;;;;;;5016411;28;20202;-76
2023/06/26 03:44:48;;;;;;;5.87;3.77;;;24.30;74.60;;;;;;5001036;28;20587;-76
2023/06/26 03:47:16;;;;;;;4.10;3.47;;;24.30;74.90;;;;;;5016703;28;21155;-76
2023/06/26 03:49:43;;;;;;;4.00;3.40;;;24.30;75.20;;;;;;4999929;28;20619;-76
2023/06/26 03:52:09;;;;;;;10.27;3.30;;;24.40;75.60;;;;;;5032646;28;20973;-76
2023/06/26 03:54:35;;;;;;;8.00;3.37;;;24.40;75.90;;;;;;5016806;28;20564;-76
2023/06/26 03:57:01;;;;;;;5.30;3.40;;;24.40;76.20;;;;;;5033180;28;20184;-76
2023/06/26 03:59:27;;;;;;;3.80;3.03;;;24.50;76.60;;;;;;5017128;28;20191;-76
2023/06/26 04:01:53;;;;;;;6.20;3.13;;;24.50;77.00;;;;;;5015924;28;20316;-76
2023/06/26 04:04:19;;;;;;;3.43;3.07;;;24.50;77.30;;;;;;5016761;28;20176;-76
2023/06/26 04:06:44;;;;;;;3.30;2.67;;;24.50;77.60;;;;;;5016884;28;20631;-76
2023/06/26 04:09:10;;;;;;;3.93;3.30;;;24.50;77.90;;;;;;5016113;28;20216;-75
2023/06/26 04:11:36;;;;;;;5.40;3.40;;;24.50;78.30;;;;;;5032418;28;20197;-76
2023/06/26 04:14:02;;;;;;;3.47;3.13;;;24.60;78.70;;;;;;5032814;28;20177;-76
2023/06/26 04:16:29;;;;;;;5.17;3.23;;;24.60;78.90;;;;;;5033146;28;20177;-76
2023/06/26 04:18:56;;;;;;;4.00;3.60;;;24.60;79.20;;;;;;5050684;28;20642;-76
2023/06/26 04:21:24;;;;;;;4.57;3.27;;;24.70;79.70;;;;;;5032295;28;21201;-76
2023/06/26 04:23:50;;;;;;;7.10;2.73;;;24.70;80.00;;;;;;5032330;28;20605;-76
2023/06/26 04:26:16;;;;;;;5.07;3.70;;;24.70;80.30;;;;;;5032987;28;20642;-76
2023/06/26 04:28:43;;;;;;;4.83;3.43;;;24.70;80.80;;;;;;5012284;28;20624;-76
2023/06/26 04:31:09;;;;;;;4.23;3.57;;;24.90;81.50;;;;;;5012696;28;20187;-76
2023/06/26 04:33:38;;;;;;;7.40;3.73;;;25.00;82.20;;;;;;5032888;28;20619;-76
2023/06/26 04:36:05;;;;;;;7.80;3.60;;;25.10;82.50;;;;;;5015600;28;20626;-77
2023/06/26 04:38:34;;;;;;;7.47;2.87;;;25.30;82.60;;;;;;5016130;28;21197;-77
2023/06/26 04:41:00;;;;;;;4.67;3.37;;;25.40;82.50;;;;;;5031871;28;20893;-76
2023/06/26 04:43:26;;;;;;;3.43;2.50;;;25.50;82.50;;;;;;5032288;28;20817;-76
2023/06/26 04:45:52;;;;;;;4.50;3.37;;;25.50;82.40;;;;;;5050001;28;20633;-76
2023/06/26 04:48:18;;;;;;;3.60;3.17;;;25.60;82.60;;;;;;5032801;28;20570;-76
2023/06/26 04:50:53;;;;;;;7.17;3.83;;;25.60;82.70;;;;;;5049668;28;20203;-76
2023/06/26 04:53:23;;;;;;;5.40;3.13;;;25.70;82.90;;;;;;5015086;28;20619;-76
2023/06/26 04:55:52;;;;;;;6.23;3.13;;;25.70;82.90;;;;;;5031865;28;20637;-76
2023/06/26 04:58:19;;;;;;;4.00;3.20;;;25.80;83.00;;;;;;5032803;28;20551;-76
2023/06/26 05:00:45;;;;;;;3.20;2.20;;;25.90;82.90;;;;;;5015090;28;20571;-77
2023/06/26 05:03:12;;;;;;;3.10;2.60;;;25.90;83.00;;;;;;5031644;28;20629;-76
2023/06/26 05:05:38;;;;;;;3.80;3.00;;;25.90;82.80;;;;;;5032153;28;20295;-76
2023/06/26 05:08:26;;;;;;;3.30;3.00;;;26.00;82.80;;;;;;5015302;28;20718;-76
2023/06/26 05:10:53;;;;;;;6.60;3.47;;;26.00;82.90;;;;;;5031788;28;21199;-76
2023/06/26 05:13:19;;;;;;;7.57;2.73;;;26.10;82.80;;;;;;5031608;28;20665;-76
2023/06/26 05:15:48;;;;;;;9.60;5.17;;;26.30;83.10;;;;;;5032267;28;20657;-76
2023/06/26 05:18:14;;;;;;;4.73;2.77;;;26.30;82.80;;;;;;5015239;28;20583;-76
2023/06/26 05:20:40;;;;;;;6.40;2.93;;;26.40;82.40;;;;;;5031745;28;20602;-76
2023/06/26 05:23:06;;;;;;;4.00;2.63;;;26.50;82.70;;;;;;5014720;28;20205;-76
2023/06/26 05:25:34;;;;;;;4.10;2.60;;;26.50;81.40;;;;;;5049412;28;20662;-77
2023/06/26 05:28:00;;;;;;;4.07;3.20;;;26.50;81.00;;;;;;5031320;28;20671;-77
2023/06/26 05:30:27;;;;;;;3.40;2.90;;;26.40;80.60;;;;;;5016328;28;20579;-77
2023/06/26 05:32:54;;;;;;;4.00;2.20;;;26.40;80.40;;;;;;5048718;28;20673;-78
2023/06/26 05:35:23;;;;;;;5.77;2.77;;;26.30;80.20;;;;;;5031415;28;20588;-78
2023/06/26 05:37:50;;;;;;;3.93;2.87;;;26.20;81.20;;;;;;5031646;28;20614;-77
2023/06/26 05:40:19;;;;;;;3.80;2.90;;;26.20;80.70;;;;;;5015133;28;20595;-77
2023/06/26 05:42:45;;;;;;;4.33;2.80;;;26.30;81.40;;;;;;5048802;28;21016;-76
2023/06/26 05:45:11;;;;;;;7.87;3.00;;;26.40;81.60;;;;;;5031168;28;20615;-76
2023/06/26 05:47:37;;;;;;;3.93;2.20;;;26.50;81.50;;;;;;5015328;28;21323;-76
2023/06/26 05:50:04;;;;;;;6.87;3.10;;;26.50;81.10;;;;;;5031411;28;20176;-76
2023/06/26 05:52:30;;;;;;;3.60;2.40;;;26.50;80.90;;;;;;5028987;28;20619;-76
2023/06/26 05:54:59;;;;;;;5.13;2.70;;;26.60;81.20;;;;;;5013947;28;20679;-76
2023/06/26 05:57:28;;;;;;;4.43;2.57;;;26.80;81.40;;;;;;5014877;28;20575;-77
2023/06/26 05:59:55;;;;;;;4.27;2.93;;;27.10;81.40;;;;;;5030968;28;20583;-76
2023/06/26 06:02:20;;;;;;;3.00;2.47;;;27.30;81.10;;;;;;5030052;28;20635;-77
2023/06/26 06:04:46;;;;;;;5.20;2.63;;;27.60;81.60;;;;;;5014453;28;20595;-76
2023/06/26 06:07:12;;;;;;;5.33;2.50;;;28.10;81.70;;;;;;5054642;28;20588;-75
2023/06/26 06:09:39;;;;;;;4.40;2.23;;;28.60;81.60;;;;;;5035611;28;20932;-76
2023/06/26 06:12:06;;;;;;;4.50;2.43;;;29.30;81.70;;;;;;5033834;28;20599;-77
2023/06/26 06:14:35;;;;;;;4.53;2.63;;;30.00;80.70;;;;;;5035112;28;20626;-76
2023/06/26 06:17:01;;;;;;;6.40;2.80;;;30.30;77.30;;;;;;5018170;28;20614;-77
2023/06/26 06:19:27;;;;;;;4.20;2.43;;;30.30;74.60;;;;;;5017902;28;20583;-76
2023/06/26 06:21:53;;;;;;;6.20;2.97;;;30.10;74.10;;;;;;5032737;28;21372;-76
2023/06/26 06:24:19;;;;;;;3.03;2.17;;;30.10;73.70;;;;;;5034396;28;20723;-76
2023/06/26 06:26:45;;;;;;;5.30;2.50;;;30.30;73.80;;;;;;5034901;28;20662;-76
2023/06/26 06:29:11;;;;;;;4.20;2.63;;;30.30;72.90;;;;;;5052340;28;20629;-76
2023/06/26 06:31:37;;;;;;;4.93;2.70;;;30.10;71.80;;;;;;5017582;28;20291;-76
2023/06/26 06:34:02;;;;;;;7.50;3.10;;;29.80;70.80;;;;;;5033649;28;20660;-77
2023/06/26 06:36:28;;;;;;;3.63;2.50;;;29.60;70.80;;;;;;5017900;28;20235;-76
2023/06/26 06:38:54;;;;;;;4.80;2.67;;;29.40;71.00;;;;;;5052405;28;20169;-76
2023/06/26 06:41:20;;;;;;;3.97;2.70;;;29.20;71.10;;;;;;5017661;28;20193;-76
2023/06/26 06:43:46;;;;;;;4.60;2.00;;;28.90;71.00;;;;;;5038296;28;20721;-76
2023/06/26 06:46:12;;;;;;;4.00;2.30;;;28.60;71.30;;;;;;5047244;28;21026;-76
2023/06/26 06:48:37;;;;;;;5.10;2.03;;;28.30;71.50;;;;;;5017234;28;20602;-76
2023/06/26 06:51:03;;;;;;;4.13;1.70;;;28.10;72.00;;;;;;5033171;28;20514;-76
2023/06/26 06:53:30;;;;;;;4.27;2.23;;;27.90;72.50;;;;;;5017329;28;20263;-76
2023/06/26 06:55:55;;;;;;;5.47;2.30;;;27.80;73.40;;;;;;5033530;28;20679;-77
2023/06/26 06:58:22;;;;;;;4.73;2.50;;;27.70;73.90;;;;;;5051752;28;20583;-76
2023/06/26 07:00:48;;;;;;;4.60;2.20;;;27.70;74.40;;;;;;5033862;28;20173;-76
2023/06/26 07:03:14;;;;;;;5.00;2.13;;;27.90;76.10;;;;;;5032558;28;20631;-76
2023/06/26 07:05:43;;;;;;;3.80;2.43;;;28.50;77.70;;;;;;5051789;28;20631;-77
2023/06/26 07:08:09;;;;;;;7.70;1.73;;;29.10;78.20;;;;;;5016785;28;20596;-76
2023/06/26 07:10:35;;;;;;;3.80;1.83;;;29.90;77.90;;;;;;5017140;28;20596;-76
2023/06/26 07:13:01;;;;;;;6.77;2.20;;;30.70;77.40;;;;;;5032882;28;20215;-76
2023/06/26 07:15:26;;;;;;;3.50;2.50;;;31.50;75.60;;;;;;5034052;28;20181;-76
2023/06/26 07:17:52;;;;;;;5.87;2.07;;;32.10;73.40;;;;;;5050698;28;20182;-76
2023/06/26 07:20:18;;;;;;;5.70;2.30;;;32.50;71.70;;;;;;5036210;28;20186;-77
2023/06/26 07:22:44;;;;;;;6.77;2.70;;;32.70;68.80;;;;;;5050561;28;20716;-76
2023/06/26 07:25:11;;;;;;;4.47;2.80;;;32.60;66.70;;;;;;5049877;28;20204;-76
2023/06/26 07:27:41;;;;;;;3.70;2.00;;;32.50;65.50;;;;;;5016798;28;20571;-76
2023/06/26 07:30:08;;;;;;;4.17;3.30;;;32.40;65.00;;;;;;5033051;28;20594;-76
2023/06/26 07:32:35;;;;;;;4.90;2.57;;;32.30;64.50;;;;;;5016189;28;20619;-77
2023/06/26 07:35:01;;;;;;;3.30;1.93;;;32.30;64.80;;;;;;5049259;28;20592;-76
2023/06/26 07:37:27;;;;;;;3.67;1.60;;;32.30;64.90;;;;;;5033463;28;20579;-77
2023/06/26 07:39:52;;;;;;;7.00;2.20;;;32.40;64.70;;;;;;5033832;28;20583;-77
2023/06/26 07:42:18;;;;;;;3.77;2.00;;;32.70;64.70;;;;;;5032198;28;20663;-77
2023/06/26 07:44:44;;;;;;;4.63;2.30;;;33.10;65.20;;;;;;5033656;28;20182;-77
2023/06/26 07:47:10;;;;;;;2.90;1.77;;;33.70;65.20;;;;;;5032330;28;20215;-77
2023/06/26 07:49:36;;;;;;;3.23;1.70;;;34.20;63.90;;;;;;5051359;28;20571;-77
2023/06/26 07:52:03;;;;;;;5.50;2.20;;;34.50;62.50;;;;;;5049673;28;20957;-77
2023/06/26 07:54:29;;;;;;;4.73;1.50;;;34.90;61.30;;;;;;5050464;28;20617;-77
2023/06/26 07:56:58;;;;;;;3.47;1.30;;;35.50;61.00;;;;;;5019924;28;20664;-77
2023/06/26 07:59:25;;;;;;;5.47;1.60;;;36.10;60.60;;;;;;5032915;28;20722;-77
2023/06/26 08:01:52;;;;;;;3.17;1.70;;;36.50;58.80;;;;;;5030941;28;20657;-77
2023/06/26 08:04:20;;;;;;;2.70;1.40;;;36.50;57.10;;;;;;5023982;28;20606;-77
2023/06/26 08:06:47;;;;;;;4.30;2.03;;;36.30;55.40;;;;;;5049930;28;20631;-77
2023/06/26 08:09:13;;;;;;;5.73;1.80;;;35.90;53.80;;;;;;5050703;28;20591;-78
2023/06/26 08:11:39;;;;;;;5.10;2.00;;;35.50;53.80;;;;;;5032000;28;20619;-77
2023/06/26 08:14:05;;;;;;;2.90;1.73;;;35.20;54.10;;;;;;5035758;28;20188;-77
2023/06/26 08:16:30;;;;;;;4.10;1.80;;;34.70;53.40;;;;;;5032102;28;20179;-78
2023/06/26 08:18:56;;;;;;;2.73;1.50;;;34.20;53.30;;;;;;5032439;28;20175;-77
2023/06/26 08:21:22;;;;;;;4.47;2.00;;;34.00;54.20;;;;;;5031423;28;20232;-77
2023/06/26 08:23:47;;;;;;;3.00;1.60;;;34.10;55.30;;;;;;5032471;28;20216;-77
2023/06/26 08:26:14;;;;;;;3.30;1.50;;;34.20;55.30;;;;;;5032142;28;20207;-77
2023/06/26 08:28:39;;;;;;;6.13;2.20;;;34.10;54.90;;;;;;5049656;28;20538;-78
2023/06/26 08:31:05;;;;;;;4.30;2.00;;;34.00;54.60;;;;;;5049870;28;20569;-78
2023/06/26 08:33:31;;;;;;;4.80;2.10;;;34.10;55.20;;;;;;5036595;28;20318;-77
2023/06/26 08:35:57;;;;;;;4.50;1.70;;;34.40;55.30;;;;;;5032455;28;20222;-77
2023/06/26 08:38:22;;;;;;;3.50;1.60;;;34.50;54.80;;;;;;5031970;28;20179;-78
2023/06/26 08:40:48;;;;;;;3.47;2.00;;;34.60;54.50;;;;;;5032157;28;20798;-78
2023/06/26 08:43:14;;;;;;;3.90;1.33;;;34.90;54.50;;;;;;5031339;28;20846;-77
2023/06/26 08:45:39;;;;;;;3.50;2.10;;;35.20;54.20;;;;;;5032297;28;20230;-78
2023/06/26 08:48:08;;;;;;;3.27;1.70;;;35.30;53.60;;;;;;5050335;28;20208;-77
2023/06/26 08:50:35;;;;;;;3.13;1.57;;;35.50;53.10;;;;;;5030757;28;20188;-77
2023/06/26 08:53:18;;;;;;;3.70;1.70;;;35.30;52.40;;;;;;5049645;28;20766;-78
2023/06/26 08:55:44;;;;;;;3.70;1.80;;;34.90;51.70;;;;;;5049614;28;20990;-77
2023/06/26 08:58:12;;;;;;;6.50;2.03;;;34.60;52.00;;;;;;5031903;28;20615;-77
2023/06/26 09:00:38;;;;;;;4.10;1.90;;;34.40;51.80;;;;;;5031334;28;20178;-77
2023/06/26 09:03:05;;;;;;;5.20;2.07;;;34.00;52.00;;;;;;5031482;28;20630;-77
2023/06/26 09:05:33;;;;;;;5.03;2.07;;;34.00;52.70;;;;;;5031731;28;20637;-77
2023/06/26 09:07:59;;;;;;;5.77;2.37;;;34.00;53.00;;;;;;5050377;28;20976;-78
2023/06/26 09:10:25;;;;;;;5.93;1.77;;;34.10;53.10;;;;;;5029086;28;20610;-77
2023/06/26 09:12:54;;;;;;;5.37;2.17;;;34.20;52.90;;;;;;5014316;28;20260;-77
2023/06/26 09:15:20;;;;;;;6.13;1.53;;;34.30;52.80;;;;;;5032215;28;20223;-77
2023/06/26 09:17:48;;;;;;;4.13;1.87;;;34.60;53.00;;;;;;5049508;28;21001;-77
2023/06/26 09:20:14;;;;;;;7.73;1.83;;;34.90;52.80;;;;;;5032752;28;20692;-77
2023/06/26 09:22:42;;;;;;;3.03;1.90;;;35.20;52.40;;;;;;5030662;28;21005;-77
2023/06/26 09:25:10;;;;;;;4.03;1.50;;;35.50;52.40;;;;;;5032155;28;21377;-76
2023/06/26 09:27:36;;;;;;;3.03;1.60;;;35.70;52.20;;;;;;5032157;28;20721;-77
2023/06/26 09:30:03;;;;;;;7.30;1.87;;;35.90;51.60;;;;;;5031730;28;20637;-78
2023/06/26 09:32:29;;;;;;;6.03;1.67;;;35.80;51.10;;;;;;4998805;28;20702;-77
2023/06/26 09:35:00;;;;;;;4.70;1.60;;;35.50;49.90;;;;;;5049558;28;20721;-77
2023/06/26 09:37:26;;;;;;;3.70;1.43;;;34.90;49.10;;;;;;5049538;28;20578;-78
2023/06/26 09:39:52;;;;;;;3.20;1.63;;;34.40;49.40;;;;;;5049984;28;20584;-77
2023/06/26 09:42:20;;;;;;;4.50;1.90;;;34.20;49.90;;;;;;5035247;28;20651;-78
2023/06/26 09:44:46;;;;;;;2.77;1.43;;;34.20;50.60;;;;;;5035704;28;20222;-77
2023/06/26 09:47:12;;;;;;;3.60;1.47;;;34.40;51.20;;;;;;5039920;28;20635;-77
2023/06/26 09:49:42;;;;;;;3.70;2.03;;;34.60;51.20;;;;;;5035626;28;20587;-77
2023/06/26 09:52:09;;;;;;;6.63;1.47;;;34.80;50.70;;;;;;5033105;28;20247;-77
2023/06/26 09:54:36;;;;;;;3.30;1.47;;;34.70;49.90;;;;;;5034950;28;20587;-78
2023/06/26 09:57:09;;;;;;;3.87;1.47;;;34.50;49.40;;;;;;5053000;28;20931;-77
2023/06/26 09:59:36;;;;;;;3.20;1.20;;;34.30;48.90;;;;;;5053550;28;20588;-78
2023/06/26 10:02:01;;;;;;;5.67;1.50;;;34.10;49.80;;;;;;5017501;28;20662;-78
2023/06/26 10:04:27;;;;;;;5.20;1.90;;;34.10;50.20;;;;;;5053369;28;20641;-77
2023/06/26 10:06:56;;;;;;;3.90;2.10;;;34.10;50.00;;;;;;5031260;28;20224;-77
2023/06/26 10:09:23;;;;;;;4.27;1.50;;;34.30;50.20;;;;;;5034794;28;20183;-78
2023/06/26 10:12:11;;;;;;;5.93;1.90;;;34.40;50.10;;;;;;5051795;28;20750;-78
2023/06/26 10:14:41;;;;;;;4.87;1.70;;;34.40;49.30;;;;;;5034578;28;20591;-77
2023/06/26 10:17:11;;;;;;;2.83;1.50;;;34.10;49.20;;;;;;5053110;28;20685;-78
2023/06/26 10:19:39;;;;;;;4.70;1.40;;;34.00;48.80;;;;;;5053249;28;20593;-78
2023/06/26 10:22:05;;;;;;;4.97;1.70;;;33.90;49.20;;;;;;5037461;28;20610;-77
2023/06/26 10:24:34;;;;;;;3.23;1.53;;;33.90;49.40;;;;;;5035528;28;20610;-78
2023/06/26 10:27:33;;;;;;;6.47;1.77;;;34.00;49.70;;;;;;5017699;28;20792;-78
2023/06/26 10:30:04;;;;;;;3.80;1.70;;;34.20;49.60;;;;;;5007145;28;20629;-78
2023/06/26 10:32:31;;;;;;;3.33;1.70;;;34.30;49.90;;;;;;5033941;28;20957;-78
2023/06/26 10:34:57;;;;;;;3.73;1.57;;;34.30;48.70;;;;;;5034457;28;20600;-79
2023/06/26 10:37:43;;;;;;;6.20;1.30;;;34.40;48.60;;;;;;5052245;28;20682;-77
2023/06/26 10:40:10;;;;;;;2.97;1.33;;;34.40;48.20;;;;;;5032442;28;20931;-77
2023/06/26 10:42:38;;;;;;;3.83;1.30;;;34.70;48.60;;;;;;5018435;28;20645;-77
2023/06/26 10:45:13;;;;;;;2.57;1.10;;;34.80;48.20;;;;;;5034412;28;20587;-78
2023/06/26 10:47:41;;;;;;;2.80;1.23;;;34.90;47.40;;;;;;5051782;28;20986;-78
2023/06/26 10:50:28;;;;;;;4.83;1.57;;;35.10;47.20;;;;;;5034574;28;20706;-78
2023/06/26 10:53:22;;;;;;;2.90;1.27;;;35.10;45.50;;;;;;5032272;28;20643;-78
2023/06/26 10:55:51;;;;;;;6.07;1.97;;;35.10;45.80;;;;;;5052387;28;20574;-78
2023/06/26 10:58:33;;;;;;;4.60;2.63;;;35.20;46.00;;;;;;5052573;28;20581;-78
2023/06/26 11:01:11;;;;;;;4.30;1.53;;;35.20;45.70;;;;;;5051594;28;20609;-77
2023/06/26 11:03:37;;;;;;;5.00;1.73;;;35.20;45.30;;;;;;5026839;28;20645;-77
2023/06/26 11:06:15;;;;;;;2.87;1.10;;;35.20;45.70;;;;;;5033854;28;20615;-78
2023/06/26 11:08:54;;;;;;;2.40;1.10;;;35.20;45.20;;;;;;5051680;28;20591;-78
2023/06/26 11:11:21;;;;;;;2.47;1.30;;;35.30;44.20;;;;;;5032650;28;20705;-77
2023/06/26 11:13:48;;;;;;;3.77;1.17;;;35.30;44.40;;;;;;5033845;28;20579;-77
2023/06/26 11:16:15;;;;;;;5.73;0.93;;;35.40;45.20;;;;;;5033614;28;20764;-78
2023/06/26 11:18:41;;;;;;;5.03;1.60;;;35.40;44.40;;;;;;5033975;28;20579;-78
2023/06/26 11:21:14;;;;;;;3.80;1.33;;;35.50;44.90;;;;;;5032533;28;20591;-78
2023/06/26 11:23:40;;;;;;;7.60;2.13;;;35.50;43.70;;;;;;5050940;28;20587;-77
2023/06/26 11:26:17;;;;;;;3.80;1.50;;;35.50;43.70;;;;;;5033068;28;20627;-77
2023/06/26 11:28:55;;;;;;;3.83;1.47;;;35.40;43.10;;;;;;5033160;28;20587;-77
2023/06/26 11:31:32;;;;;;;2.00;1.17;;;35.30;43.00;;;;;;5031907;28;20711;-77
2023/06/26 11:34:00;;;;;;;2.40;1.07;;;35.30;42.10;;;;;;5050310;28;20623;-77
2023/06/26 11:36:29;;;;;;;3.27;1.47;;;35.10;43.10;;;;;;5055853;28;20767;-78
2023/06/26 11:38:55;;;;;;;3.47;1.20;;;35.00;42.70;;;;;;5033359;28;20690;-77
2023/06/26 11:41:22;;;;;;;3.97;1.47;;;35.00;43.10;;;;;;5050556;28;20586;-77
2023/06/26 11:43:47;;;;;;;3.63;1.17;;;35.00;43.10;;;;;;5033110;28;20973;-78
2023/06/26 11:46:16;;;;;;;5.03;1.50;;;34.90;42.90;;;;;;5051259;28;20639;-78
2023/06/26 11:48:42;;;;;;;3.90;1.20;;;34.70;42.60;;;;;;5051222;28;20169;-78
2023/06/26 11:51:08;;;;;;;3.83;1.00;;;34.50;42.60;;;;;;5031597;28;21173;-78
2023/06/26 11:53:41;;;;;;;6.33;1.90;;;34.40;42.50;;;;;;5050652;28;20181;-78
2023/06/26 11:56:14;;;;;;;2.40;1.00;;;34.20;41.80;;;;;;5050384;28;20182;-77
2023/06/26 11:59:03;;;;;;;2.37;0.93;;;34.00;41.90;;;;;;5032223;28;20630;-78
2023/06/26 12:01:34;;;;;;;3.37;1.07;;;33.70;41.00;;;;;;5015168;28;20668;-78
2023/06/26 12:04:05;;;;;;;2.67;1.30;;;33.50;41.00;;;;;;5050808;28;20585;-78
2023/06/26 12:06:33;;;;;;;2.17;1.00;;;33.40;41.20;;;;;;5049573;28;20725;-77
2023/06/26 12:09:03;;;;;;;2.03;1.23;;;33.40;41.50;;;;;;5050788;28;20918;-78
2023/06/26 12:11:30;;;;;;;3.13;1.20;;;33.30;41.80;;;;;;5017654;28;20948;-77
2023/06/26 12:13:56;;;;;;;2.57;1.03;;;33.20;42.00;;;;;;5050746;28;20991;-78
2023/06/26 12:16:22;;;;;;;3.97;0.97;;;33.10;42.20;;;;;;4996766;28;20594;-77
2023/06/26 12:18:47;;;;;;;4.57;1.13;;;33.10;42.50;;;;;;5012449;28;20975;-77
2023/06/26 12:21:35;;;;;;;3.63;1.30;;;33.10;42.70;;;;;;5029978;28;20175;-77
2023/06/26 12:24:01;;;;;;;3.00;1.10;;;33.10;42.50;;;;;;5012050;28;20211;-77
2023/06/26 12:26:28;;;;;;;3.87;1.17;;;33.00;42.20;;;;;;5032071;28;20634;-77
2023/06/26 12:29:05;;;;;;;3.03;0.93;;;32.80;42.30;;;;;;5049871;28;20951;-78
2023/06/26 12:31:32;;;;;;;3.83;0.90;;;32.70;42.30;;;;;;5031819;28;20636;-78
2023/06/26 12:33:58;;;;;;;6.07;2.20;;;32.60;42.70;;;;;;5031926;28;20940;-76
2023/06/26 12:36:24;;;;;;;2.87;1.17;;;32.50;42.80;;;;;;5015982;28;20643;-77
2023/06/26 12:38:52;;;;;;;3.23;1.40;;;32.40;42.50;;;;;;5032427;28;20677;-76
2023/06/26 12:41:20;;;;;;;2.93;1.00;;;32.30;42.60;;;;;;5031267;28;20175;-76
2023/06/26 12:43:45;;;;;;;5.47;1.10;;;32.30;42.40;;;;;;5049969;28;20572;-76
2023/06/26 12:46:11;;;;;;;2.93;0.90;;;32.10;42.20;;;;;;5012759;28;20693;-76
2023/06/26 12:48:46;;;;;;;3.10;0.97;;;31.90;42.30;;;;;;5035849;28;20584;-76
2023/06/26 12:51:17;;;;;;;4.27;1.00;;;31.80;42.30;;;;;;5029996;28;20632;-77